Time;durP1;ratioP1;P1;durP2;ratioP2;P2;SDS_P1;SDS_P2;PMS_P1;PMS_P2;Temp;Humidity;BMP_temperature;BMP_pressure;BME280_temperature;BME280_humidity;BME280_pressure;Samples;Min_cycle;Max_cycle;Signal;HPM_P1;HPM_P2
2022/03/23 00:00:40;;;;;;;;;;;6.70;82.90;;;;;;2081964;28;19905;-68
2022/03/23 00:01:41;;;;;;;;;;;6.70;83.10;;;;;;2084360;28;19912;-68
2022/03/23 00:02:41;;;;;;;;;;;6.60;83.30;;;;;;2080727;28;19975;-68
2022/03/23 00:03:42;;;;;;;;;;;6.70;83.60;;;;;;2082203;28;20364;-68
2022/03/23 00:04:43;;;;;;;;;;;6.60;83.40;;;;;;2078233;28;19905;-68
2022/03/23 00:05:44;;;;;;;;;;;6.60;84.10;;;;;;2076654;28;19959;-68
2022/03/23 00:06:45;;;;;;;;;;;6.60;85.20;;;;;;2084535;28;19970;-68
2022/03/23 00:07:45;;;;;;;;;;;6.60;85.30;;;;;;2083344;28;19913;-67
2022/03/23 00:08:46;;;;;;;;;;;6.60;85.10;;;;;;2082742;28;19986;-67
2022/03/23 00:09:46;;;;;;;;;;;6.60;85.40;;;;;;2082081;28;19905;-67
2022/03/23 00:10:48;;;;;;;;;;;6.60;85.40;;;;;;2080698;28;19988;-67
2022/03/23 00:11:48;;;;;;;;;;;6.50;85.00;;;;;;2081329;28;19916;-67
2022/03/23 00:12:49;;;;;;;;;;;6.50;84.80;;;;;;2079457;28;19916;-68
2022/03/23 00:13:49;;;;;;;;;;;6.50;85.10;;;;;;2079520;28;19932;-68
2022/03/23 00:14:50;;;;;;;;;;;6.50;85.00;;;;;;2080366;28;19905;-68
2022/03/23 00:15:50;;;;;;;;;;;6.50;84.70;;;;;;2080984;28;20280;-68
2022/03/23 00:16:51;;;;;;;;;;;6.50;84.90;;;;;;2086103;28;20002;-68
2022/03/23 00:17:52;;;;;;;;;;;6.40;85.60;;;;;;2081460;28;19963;-68
2022/03/23 00:18:53;;;;;;;;;;;6.40;86.20;;;;;;2080284;28;19949;-68
2022/03/23 00:19:53;;;;;;;;;;;6.40;86.40;;;;;;2080860;28;19963;-68
2022/03/23 00:20:54;;;;;;;;;;;6.40;87.80;;;;;;2080966;28;19909;-68
2022/03/23 00:21:54;;;;;;;;;;;6.40;87.20;;;;;;2080406;28;19920;-68
2022/03/23 00:22:55;;;;;;;;;;;6.40;87.00;;;;;;2082615;28;20478;-68
2022/03/23 00:23:56;;;;;;;;;;;6.40;86.80;;;;;;2083051;28;20072;-68
2022/03/23 00:24:56;;;;;;;;;;;6.30;86.80;;;;;;2083313;28;20290;-68
2022/03/23 00:25:59;;;;;;;;;;;6.30;87.10;;;;;;2079113;28;19913;-68
2022/03/23 00:27:00;;;;;;;;;;;6.30;87.30;;;;;;2080530;28;19970;-68
2022/03/23 00:28:00;;;;;;;;;;;6.30;87.30;;;;;;2079836;28;20337;-68
2022/03/23 00:29:01;;;;;;;;;;;6.30;88.00;;;;;;2080692;28;19905;-67
2022/03/23 00:30:01;;;;;;;;;;;6.30;88.60;;;;;;2077598;28;19906;-67
2022/03/23 00:31:02;;;;;;;;;;;6.20;88.70;;;;;;2083058;28;20369;-67
2022/03/23 00:32:04;;;;;;;;;;;6.30;88.30;;;;;;2084017;28;20245;-67
2022/03/23 00:33:05;;;;;;;;;;;6.20;87.90;;;;;;2081402;28;19955;-67
2022/03/23 00:34:05;;;;;;;;;;;6.20;87.70;;;;;;2080831;28;19909;-67
2022/03/23 00:35:06;;;;;;;;;;;6.20;87.80;;;;;;2080385;28;20004;-67
2022/03/23 00:36:07;;;;;;;;;;;6.20;88.50;;;;;;2080761;28;20363;-67
2022/03/23 00:37:07;;;;;;;;;;;6.20;89.30;;;;;;2080797;28;19975;-67
2022/03/23 00:38:08;;;;;;;;;;;6.20;89.10;;;;;;2084468;28;19974;-67
2022/03/23 00:39:08;;;;;;;;;;;6.10;89.40;;;;;;2080651;28;19952;-67
2022/03/23 00:40:09;;;;;;;;;;;6.10;89.20;;;;;;2083781;28;20644;-67
2022/03/23 00:41:10;;;;;;;;;;;6.10;89.10;;;;;;2083601;28;19932;-67
2022/03/23 00:42:11;;;;;;;;;;;6.10;89.30;;;;;;2082712;28;19999;-67
2022/03/23 00:43:11;;;;;;;;;;;6.10;89.20;;;;;;2079419;28;19905;-67
2022/03/23 00:44:12;;;;;;;;;;;6.10;89.70;;;;;;2081730;28;19909;-67
2022/03/23 00:45:12;;;;;;;;;;;6.10;89.30;;;;;;2080368;28;19999;-67
2022/03/23 00:46:14;;;;;;;;;;;6.00;88.60;;;;;;2084324;28;19909;-67
2022/03/23 00:47:14;;;;;;;;;;;6.00;88.90;;;;;;2081794;28;19905;-67
2022/03/23 00:48:14;;;;;;;;;;;6.00;89.20;;;;;;2083129;28;19905;-67
2022/03/23 00:49:15;;;;;;;;;;;6.00;89.10;;;;;;2081013;28;19914;-67
2022/03/23 00:50:15;;;;;;;;;;;6.00;89.30;;;;;;2082227;28;19997;-67
2022/03/23 00:51:16;;;;;;;;;;;6.00;89.90;;;;;;2082997;28;19913;-67
2022/03/23 00:52:16;;;;;;;;;;;5.90;90.10;;;;;;2077964;28;19916;-67
2022/03/23 00:53:18;;;;;;;;;;;5.90;90.20;;;;;;2080469;28;20723;-67
2022/03/23 00:54:21;;;;;;;;;;;5.90;90.20;;;;;;2084270;28;20391;-67
2022/03/23 00:55:22;;;;;;;;;;;5.90;90.20;;;;;;2081830;28;20012;-67
2022/03/23 00:56:22;;;;;;;;;;;5.90;90.50;;;;;;2082326;28;19955;-67
2022/03/23 00:57:23;;;;;;;;;;;5.90;90.80;;;;;;2080534;28;19915;-67
2022/03/23 00:58:23;;;;;;;;;;;5.90;91.50;;;;;;2082286;28;19912;-67
2022/03/23 00:59:24;;;;;;;;;;;5.90;91.60;;;;;;2078418;28;20353;-67
2022/03/23 01:00:24;;;;;;;;;;;5.80;91.50;;;;;;2079043;28;19924;-67
2022/03/23 01:01:25;;;;;;;;;;;5.80;91.40;;;;;;2081836;28;19917;-67
2022/03/23 01:02:26;;;;;;;;;;;5.80;91.00;;;;;;2084032;28;19909;-67
2022/03/23 01:03:27;;;;;;;;;;;5.80;91.20;;;;;;2081146;28;20375;-67
2022/03/23 01:04:28;;;;;;;;;;;5.80;91.30;;;;;;2077224;28;20323;-67
2022/03/23 01:05:29;;;;;;;;;;;5.80;90.80;;;;;;2079857;28;19909;-67
2022/03/23 01:06:29;;;;;;;;;;;5.80;90.60;;;;;;2079377;28;19909;-67
2022/03/23 01:07:30;;;;;;;;;;;5.80;90.90;;;;;;2080764;28;19913;-67
2022/03/23 01:08:31;;;;;;;;;;;5.80;91.00;;;;;;2080489;28;19905;-67
2022/03/23 01:09:31;;;;;;;;;;;5.70;91.10;;;;;;2080896;28;19904;-67
2022/03/23 01:10:34;;;;;;;;;;;5.70;91.50;;;;;;2083423;28;19909;-67
2022/03/23 01:11:34;;;;;;;;;;;5.70;91.60;;;;;;2083526;28;19935;-67
2022/03/23 01:12:35;;;;;;;;;;;5.70;91.80;;;;;;2079690;28;20417;-67
2022/03/23 01:13:36;;;;;;;;;;;5.70;91.60;;;;;;2080356;28;19944;-69
2022/03/23 01:14:36;;;;;;;;;;;5.70;91.70;;;;;;2079808;28;20367;-68
2022/03/23 01:15:37;;;;;;;;;;;5.70;91.80;;;;;;2077786;28;20379;-68
2022/03/23 01:16:37;;;;;;;;;;;5.70;92.20;;;;;;2081315;28;19905;-68
2022/03/23 01:17:38;;;;;;;;;;;5.70;92.30;;;;;;2080419;28;19916;-68
2022/03/23 01:18:39;;;;;;;;;;;5.60;92.60;;;;;;2082968;28;19999;-68
2022/03/23 01:19:40;;;;;;;;;;;5.60;92.20;;;;;;2083112;28;19923;-68
2022/03/23 01:20:40;;;;;;;;;;;5.60;91.80;;;;;;2081108;28;19959;-68
2022/03/23 01:21:40;;;;;;;;;;;5.60;91.80;;;;;;2080376;28;20015;-68
2022/03/23 01:22:42;;;;;;;;;;;5.60;92.20;;;;;;2079751;28;20368;-68
2022/03/23 01:23:43;;;;;;;;;;;5.60;92.60;;;;;;2078478;28;19909;-68
2022/03/23 01:24:44;;;;;;;;;;;5.60;92.50;;;;;;2079768;28;19905;-68
2022/03/23 01:25:45;;;;;;;;;;;5.50;92.50;;;;;;2078415;28;19996;-68
2022/03/23 01:26:45;;;;;;;;;;;5.50;92.80;;;;;;2082971;28;19915;-68
2022/03/23 01:27:46;;;;;;;;;;;5.50;92.80;;;;;;2083194;28;20020;-68
2022/03/23 01:28:47;;;;;;;;;;;5.50;92.80;;;;;;2080834;28;19909;-68
2022/03/23 01:29:47;;;;;;;;;;;5.50;93.00;;;;;;2083143;28;19915;-68
2022/03/23 01:30:48;;;;;;;;;;;5.50;93.40;;;;;;2075119;28;19912;-68
2022/03/23 01:31:48;;;;;;;;;;;5.50;93.60;;;;;;2080885;28;19905;-68
2022/03/23 01:32:49;;;;;;;;;;;5.50;94.20;;;;;;2081667;28;19916;-68
2022/03/23 01:33:50;;;;;;;;;;;5.40;93.70;;;;;;2082849;28;19991;-68
2022/03/23 01:34:50;;;;;;;;;;;5.40;93.50;;;;;;2083778;28;19959;-68
2022/03/23 01:35:50;;;;;;;;;;;5.40;93.40;;;;;;2082372;28;19951;-68
2022/03/23 01:36:51;;;;;;;;;;;5.40;93.70;;;;;;2080657;28;19912;-68
2022/03/23 01:37:51;;;;;;;;;;;5.40;93.80;;;;;;2081600;28;20241;-68
2022/03/23 01:38:52;;;;;;;;;;;5.40;93.60;;;;;;2078208;28;19905;-68
2022/03/23 01:39:53;;;;;;;;;;;5.40;93.80;;;;;;2079333;28;19944;-68
2022/03/23 01:40:54;;;;;;;;;;;5.30;93.30;;;;;;2078282;28;19940;-68
2022/03/23 01:41:55;;;;;;;;;;;5.30;92.90;;;;;;2082165;28;20276;-68
2022/03/23 01:42:55;;;;;;;;;;;5.30;93.30;;;;;;2082755;28;19952;-68
2022/03/23 01:43:56;;;;;;;;;;;5.30;93.90;;;;;;2080763;28;19909;-68
2022/03/23 01:44:56;;;;;;;;;;;5.30;94.30;;;;;;2080838;28;19967;-68
2022/03/23 01:45:57;;;;;;;;;;;5.30;94.50;;;;;;2079999;28;19948;-68
2022/03/23 01:47:00;;;;;;;;;;;5.30;94.70;;;;;;2080361;28;19940;-68
2022/03/23 01:48:01;;;;;;;;;;;5.30;94.60;;;;;;2082401;28;19991;-68
2022/03/23 01:49:01;;;;;;;;;;;5.30;94.30;;;;;;2077408;28;19905;-68
2022/03/23 01:50:04;;;;;;;;;;;5.30;94.40;;;;;;2083701;28;19905;-68
2022/03/23 01:51:04;;;;;;;;;;;5.20;94.30;;;;;;2082547;28;19995;-68
2022/03/23 01:52:06;;;;;;;;;;;5.20;94.30;;;;;;2081183;28;19909;-69
2022/03/23 01:53:07;;;;;;;;;;;5.20;94.50;;;;;;2081884;28;20476;-68
2022/03/23 01:54:07;;;;;;;;;;;5.20;94.90;;;;;;2076340;28;19991;-68
2022/03/23 01:55:10;;;;;;;;;;;5.20;95.20;;;;;;2081421;28;20016;-68
2022/03/23 01:56:11;;;;;;;;;;;5.20;95.50;;;;;;2077105;28;20565;-68
2022/03/23 01:57:16;;;;;;;;;;;5.20;95.30;;;;;;2083913;28;19909;-68
2022/03/23 01:58:17;;;;;;;;;;;5.20;95.60;;;;;;2083620;28;20140;-68
2022/03/23 01:59:18;;;;;;;;;;;5.20;95.60;;;;;;2083101;28;19905;-68
2022/03/23 02:00:19;;;;;;;;;;;5.10;95.60;;;;;;2079971;28;19916;-68
2022/03/23 02:01:20;;;;;;;;;;;5.10;95.20;;;;;;2080039;28;19996;-68
2022/03/23 02:02:20;;;;;;;;;;;5.10;94.70;;;;;;2078374;28;19905;-68
2022/03/23 02:03:21;;;;;;;;;;;5.10;95.00;;;;;;2080660;28;20391;-68
2022/03/23 02:04:22;;;;;;;;;;;5.10;95.40;;;;;;2076936;28;19968;-68
2022/03/23 02:05:22;;;;;;;;;;;5.10;96.10;;;;;;2077686;28;19909;-68
2022/03/23 02:06:23;;;;;;;;;;;5.00;96.30;;;;;;2082432;28;19909;-68
2022/03/23 02:07:24;;;;;;;;;;;5.00;96.70;;;;;;2081774;28;19913;-68
2022/03/23 02:08:24;;;;;;;;;;;5.00;96.40;;;;;;2078307;28;19959;-68
2022/03/23 02:09:26;;;;;;;;;;;5.00;97.20;;;;;;2080441;28;19913;-68
2022/03/23 02:10:28;;;;;;;;;;;5.00;97.50;;;;;;2078371;28;19996;-68
2022/03/23 02:11:29;;;;;;;;;;;5.00;97.30;;;;;;2081468;28;19909;-68
2022/03/23 02:12:30;;;;;;;;;;;5.00;96.80;;;;;;2077575;28;19948;-68
2022/03/23 02:13:30;;;;;;;;;;;5.00;96.80;;;;;;2083295;28;20026;-68
2022/03/23 02:14:31;;;;;;;;;;;5.00;96.70;;;;;;2080018;28;20000;-68
2022/03/23 02:15:31;;;;;;;;;;;5.00;96.70;;;;;;2080587;28;20541;-68
2022/03/23 02:16:38;;;;;;;;;;;5.00;96.70;;;;;;2082084;28;19908;-68
2022/03/23 02:17:38;;;;;;;;;;;5.00;96.70;;;;;;2080519;28;19956;-68
2022/03/23 02:18:39;;;;;;;;;;;5.00;96.90;;;;;;2077859;28;19912;-68
2022/03/23 02:19:39;;;;;;;;;;;4.90;97.20;;;;;;2080514;28;20280;-68
2022/03/23 02:20:40;;;;;;;;;;;4.90;97.10;;;;;;2078507;28;19938;-68
2022/03/23 02:21:41;;;;;;;;;;;4.90;96.80;;;;;;2083143;28;19905;-68
2022/03/23 02:22:42;;;;;;;;;;;4.90;96.40;;;;;;2082915;28;20261;-68
2022/03/23 02:23:42;;;;;;;;;;;4.90;96.40;;;;;;2081066;28;19977;-68
2022/03/23 02:24:45;;;;;;;;;;;4.90;95.90;;;;;;2085205;28;19905;-68
2022/03/23 02:25:47;;;;;;;;;;;4.90;95.70;;;;;;2082408;28;20367;-68
2022/03/23 02:26:48;;;;;;;;;;;4.90;96.30;;;;;;2084132;28;19919;-68
2022/03/23 02:27:50;;;;;;;;;;;4.80;96.70;;;;;;2080857;28;19912;-68
2022/03/23 02:28:50;;;;;;;;;;;4.90;96.90;;;;;;2082636;28;19913;-68
2022/03/23 02:29:53;;;;;;;;;;;4.80;97.00;;;;;;2084379;28;19913;-67
2022/03/23 02:30:54;;;;;;;;;;;4.80;97.30;;;;;;2080752;28;19905;-67
2022/03/23 02:31:56;;;;;;;;;;;4.90;97.40;;;;;;2082300;28;20356;-68
2022/03/23 02:32:59;;;;;;;;;;;4.80;97.70;;;;;;2082588;28;19905;-68
2022/03/23 02:34:00;;;;;;;;;;;4.80;98.20;;;;;;2081137;28;20404;-68
2022/03/23 02:35:01;;;;;;;;;;;4.80;98.40;;;;;;2079885;28;19916;-68
2022/03/23 02:36:01;;;;;;;;;;;4.80;98.30;;;;;;2080569;28;19905;-68
2022/03/23 02:37:02;;;;;;;;;;;4.80;98.10;;;;;;2086284;28;19905;-68
2022/03/23 02:38:02;;;;;;;;;;;4.80;98.40;;;;;;2084074;28;19905;-68
2022/03/23 02:39:03;;;;;;;;;;;4.80;98.20;;;;;;2077788;28;20051;-68
2022/03/23 02:40:04;;;;;;;;;;;4.80;98.40;;;;;;2081189;28;19913;-68
2022/03/23 02:41:04;;;;;;;;;;;4.70;98.10;;;;;;2082016;28;19939;-68
2022/03/23 02:42:05;;;;;;;;;;;4.70;97.30;;;;;;2079425;28;19927;-68
2022/03/23 02:43:05;;;;;;;;;;;4.70;97.20;;;;;;2083727;28;19909;-68
2022/03/23 02:44:06;;;;;;;;;;;4.70;97.60;;;;;;2078737;28;20384;-68
2022/03/23 02:45:07;;;;;;;;;;;4.70;97.80;;;;;;2082599;28;19909;-68
2022/03/23 02:46:11;;;;;;;;;;;4.70;99.90;;;;;;2077539;28;19959;-68
2022/03/23 02:47:12;;;;;;;;;;;4.70;99.10;;;;;;2082555;28;20289;-68
2022/03/23 02:48:13;;;;;;;;;;;4.70;99.20;;;;;;2081327;28;19910;-68
2022/03/23 02:49:18;;;;;;;;;;;4.70;99.90;;;;;;2080724;28;19906;-68
2022/03/23 02:50:18;;;;;;;;;;;4.60;99.90;;;;;;2079740;28;19932;-68
2022/03/23 02:51:19;;;;;;;;;;;4.70;99.60;;;;;;2077839;28;19943;-68
2022/03/23 02:52:19;;;;;;;;;;;4.60;99.90;;;;;;2083720;28;19991;-68
2022/03/23 03:02:10;;;;;;;;;;;4.60;99.90;;;;;;2084112;28;19909;-68
2022/03/23 03:03:11;;;;;;;;;;;4.60;99.90;;;;;;2080863;28;19948;-68
2022/03/23 03:04:11;;;;;;;;;;;4.60;99.60;;;;;;2081036;28;19910;-68
2022/03/23 03:05:12;;;;;;;;;;;4.50;99.20;;;;;;2082182;28;19943;-68
2022/03/23 03:06:13;;;;;;;;;;;4.50;99.10;;;;;;2082122;28;20340;-68
2022/03/23 03:07:13;;;;;;;;;;;4.50;99.20;;;;;;2078055;28;19953;-68
2022/03/23 03:09:33;;;;;;;;;;;4.50;99.20;;;;;;2081127;28;20306;-68
2022/03/23 03:10:33;;;;;;;;;;;4.40;99.00;;;;;;2082563;28;19905;-68
2022/03/23 03:11:34;;;;;;;;;;;4.40;99.70;;;;;;2083467;28;19912;-68
2022/03/23 03:12:35;;;;;;;;;;;4.40;99.90;;;;;;2080091;28;20392;-68
2022/03/23 03:13:35;;;;;;;;;;;4.40;99.90;;;;;;2083803;28;20245;-68
2022/03/23 03:14:36;;;;;;;;;;;4.40;99.90;;;;;;2083158;28;19916;-68
2022/03/23 03:15:36;;;;;;;;;;;4.40;99.90;;;;;;2081073;28;20476;-68
2022/03/23 03:16:37;;;;;;;;;;;4.40;99.90;;;;;;2084714;28;20635;-68
2022/03/23 03:17:37;;;;;;;;;;;4.30;99.70;;;;;;2084968;28;19913;-68
2022/03/23 03:18:38;;;;;;;;;;;4.40;99.50;;;;;;2082334;28;19912;-68
2022/03/23 03:19:38;;;;;;;;;;;4.30;99.10;;;;;;2083636;28;19905;-68
2022/03/23 03:20:39;;;;;;;;;;;4.30;99.20;;;;;;2080474;28;19909;-67
2022/03/23 03:21:39;;;;;;;;;;;4.30;99.70;;;;;;2082870;28;19955;-67
2022/03/23 03:22:40;;;;;;;;;;;4.30;99.90;;;;;;2079061;28;19912;-67
2022/03/23 03:23:42;;;;;;;;;;;4.30;99.90;;;;;;2081966;28;19962;-67
2022/03/23 03:24:42;;;;;;;;;;;4.30;99.90;;;;;;2081187;28;19904;-68
2022/03/23 03:25:42;;;;;;;;;;;4.30;99.90;;;;;;2081042;28;19953;-68
2022/03/23 03:26:44;;;;;;;;;;;4.30;99.90;;;;;;2080187;28;20452;-68
2022/03/23 03:27:44;;;;;;;;;;;4.30;99.90;;;;;;2081444;28;20360;-68
2022/03/23 03:28:45;;;;;;;;;;;4.30;99.90;;;;;;2080572;28;20322;-68
2022/03/23 03:29:45;;;;;;;;;;;4.30;99.90;;;;;;2079075;28;19966;-68
2022/03/23 03:30:46;;;;;;;;;;;4.20;99.90;;;;;;2077269;28;19909;-68
2022/03/23 03:31:46;;;;;;;;;;;4.20;99.90;;;;;;2085191;28;19909;-68
2022/03/23 03:32:47;;;;;;;;;;;4.20;99.90;;;;;;2084796;28;20307;-68
2022/03/23 03:33:47;;;;;;;;;;;4.20;99.90;;;;;;2081965;28;19956;-68
2022/03/23 03:34:47;;;;;;;;;;;4.20;99.90;;;;;;2080760;28;20558;-68
2022/03/23 03:35:48;;;;;;;;;;;4.20;99.90;;;;;;2081533;28;19920;-68
2022/03/23 03:36:48;;;;;;;;;;;4.20;99.90;;;;;;2080782;28;20291;-68
2022/03/23 03:37:49;;;;;;;;;;;4.20;99.90;;;;;;2081121;28;20011;-68
2022/03/23 03:38:50;;;;;;;;;;;4.20;99.90;;;;;;2079412;28;19988;-68
2022/03/23 03:39:50;;;;;;;;;;;4.20;99.90;;;;;;2084037;28;19909;-68
2022/03/23 03:40:51;;;;;;;;;;;4.20;99.90;;;;;;2084334;28;20040;-68
2022/03/23 03:41:51;;;;;;;;;;;4.10;99.90;;;;;;2077517;28;19916;-68
2022/03/23 03:42:51;;;;;;;;;;;4.10;99.90;;;;;;2081925;28;19905;-68
2022/03/23 03:43:52;;;;;;;;;;;4.20;99.90;;;;;;2078852;28;19912;-68
2022/03/23 03:44:52;;;;;;;;;;;4.10;99.90;;;;;;2082722;28;20008;-68
2022/03/23 03:45:53;;;;;;;;;;;4.10;99.90;;;;;;2080684;28;19920;-68
2022/03/23 03:46:54;;;;;;;;;;;4.10;99.90;;;;;;2081499;28;20375;-68
2022/03/23 03:47:55;;;;;;;;;;;4.10;99.90;;;;;;2085234;28;20404;-68
2022/03/23 03:48:55;;;;;;;;;;;4.10;99.90;;;;;;2084545;28;20257;-68
2022/03/23 03:49:56;;;;;;;;;;;4.10;99.90;;;;;;2083932;28;20272;-68
2022/03/23 03:50:56;;;;;;;;;;;4.10;99.90;;;;;;2082969;28;19905;-68
2022/03/23 03:51:57;;;;;;;;;;;4.10;99.90;;;;;;2079388;28;19940;-68
2022/03/23 03:52:57;;;;;;;;;;;4.10;99.90;;;;;;2082298;28;19978;-68
2022/03/23 03:53:58;;;;;;;;;;;4.00;99.90;;;;;;2079618;28;19909;-68
2022/03/23 03:54:58;;;;;;;;;;;4.00;99.90;;;;;;2082407;28;19959;-68
2022/03/23 03:55:58;;;;;;;;;;;4.10;99.90;;;;;;2084116;28;19905;-68
2022/03/23 03:56:59;;;;;;;;;;;4.00;99.90;;;;;;2084129;28;20003;-68
2022/03/23 03:57:59;;;;;;;;;;;4.00;99.90;;;;;;2082845;28;19959;-68
2022/03/23 03:59:00;;;;;;;;;;;4.00;99.90;;;;;;2082613;28;19979;-68
2022/03/23 04:00:00;;;;;;;;;;;4.00;99.90;;;;;;2079678;28;19905;-68
2022/03/23 04:01:01;;;;;;;;;;;4.00;99.90;;;;;;2081475;28;20007;-68
2022/03/23 04:02:01;;;;;;;;;;;4.00;99.90;;;;;;2079271;28;19905;-68
2022/03/23 04:03:02;;;;;;;;;;;4.00;99.90;;;;;;2077246;28;19932;-68
2022/03/23 04:04:03;;;;;;;;;;;4.00;99.90;;;;;;2077912;28;19944;-68
2022/03/23 04:05:04;;;;;;;;;;;4.00;99.90;;;;;;2077563;28;19909;-68
2022/03/23 04:06:05;;;;;;;;;;;4.00;99.90;;;;;;2076155;28;20463;-68
2022/03/23 04:07:06;;;;;;;;;;;3.90;99.90;;;;;;2078016;28;20000;-68
2022/03/23 04:08:07;;;;;;;;;;;3.90;99.90;;;;;;2076004;28;20452;-68
2022/03/23 04:09:07;;;;;;;;;;;3.90;99.90;;;;;;2076298;28;20436;-68
2022/03/23 04:10:09;;;;;;;;;;;3.90;99.90;;;;;;2074413;28;19989;-68
2022/03/23 04:11:09;;;;;;;;;;;3.90;99.90;;;;;;2075495;28;20432;-68
2022/03/23 04:12:10;;;;;;;;;;;3.90;99.90;;;;;;2074647;28;20284;-68
2022/03/23 04:13:10;;;;;;;;;;;3.90;99.90;;;;;;2074929;28;20153;-68
2022/03/23 04:14:11;;;;;;;;;;;3.90;99.90;;;;;;2076859;28;19995;-68
2022/03/23 04:15:11;;;;;;;;;;;3.90;99.90;;;;;;2072411;28;20004;-68
2022/03/23 04:16:12;;;;;;;;;;;3.90;99.90;;;;;;2075035;28;20373;-68
2022/03/23 04:17:12;;;;;;;;;;;3.90;99.90;;;;;;2077443;28;19933;-68
2022/03/23 04:18:13;;;;;;;;;;;3.80;99.90;;;;;;2076142;28;19905;-68
2022/03/23 04:19:13;;;;;;;;;;;3.80;99.90;;;;;;2077972;28;19905;-68
2022/03/23 04:20:14;;;;;;;;;;;3.80;99.90;;;;;;2074588;28;19912;-68
2022/03/23 04:21:15;;;;;;;;;;;3.80;99.90;;;;;;2074742;28;19916;-68
2022/03/23 04:22:15;;;;;;;;;;;3.80;99.90;;;;;;2075705;28;19916;-68
2022/03/23 04:23:16;;;;;;;;;;;3.80;99.90;;;;;;2073887;28;20385;-68
2022/03/23 04:24:16;;;;;;;;;;;3.80;99.90;;;;;;2080812;28;19916;-68
2022/03/23 04:25:17;;;;;;;;;;;3.80;99.90;;;;;;2075478;28;20258;-68
2022/03/23 04:26:17;;;;;;;;;;;3.80;99.90;;;;;;2081167;28;19905;-68
2022/03/23 04:27:18;;;;;;;;;;;3.80;99.90;;;;;;2078619;28;19963;-68
2022/03/23 04:28:20;;;;;;;;;;;3.80;99.90;;;;;;2081833;28;19905;-68
2022/03/23 04:29:24;;;;;;;;;;;3.80;99.90;;;;;;2082483;28;20012;-68
2022/03/23 04:30:30;;;;;;;;;;;3.80;99.90;;;;;;2081468;28;19905;-68
2022/03/23 04:31:30;;;;;;;;;;;3.70;99.90;;;;;;2079718;28;19909;-68
2022/03/23 04:32:31;;;;;;;;;;;3.70;99.90;;;;;;2080805;28;20043;-68
2022/03/23 04:33:31;;;;;;;;;;;3.70;99.90;;;;;;2075545;28;20552;-67
2022/03/23 04:34:32;;;;;;;;;;;3.70;99.90;;;;;;2082215;28;19917;-67
2022/03/23 04:35:32;;;;;;;;;;;3.70;99.90;;;;;;2078598;28;19955;-67
2022/03/23 04:36:33;;;;;;;;;;;3.70;99.90;;;;;;2079607;28;20352;-67
2022/03/23 04:37:33;;;;;;;;;;;3.70;99.90;;;;;;2080657;28;19909;-68
2022/03/23 04:38:34;;;;;;;;;;;3.70;99.90;;;;;;2079631;28;19912;-68
2022/03/23 04:39:34;;;;;;;;;;;3.70;99.90;;;;;;2078687;28;19928;-67
2022/03/23 04:40:35;;;;;;;;;;;3.70;99.90;;;;;;2082013;28;19921;-67
2022/03/23 04:41:35;;;;;;;;;;;3.70;99.90;;;;;;2081758;28;19940;-67
2022/03/23 04:42:36;;;;;;;;;;;3.70;99.90;;;;;;2080836;28;19957;-67
2022/03/23 04:43:38;;;;;;;;;;;3.70;99.90;;;;;;2080954;28;19909;-67
2022/03/23 04:44:38;;;;;;;;;;;3.70;99.90;;;;;;2079733;28;19905;-67
2022/03/23 04:45:40;;;;;;;;;;;3.70;99.90;;;;;;2080110;28;19948;-67
2022/03/23 04:46:40;;;;;;;;;;;3.70;99.90;;;;;;2077940;28;19913;-68
2022/03/23 04:47:41;;;;;;;;;;;3.70;99.90;;;;;;2079158;28;20002;-67
2022/03/23 04:48:42;;;;;;;;;;;3.70;99.90;;;;;;2080509;28;20256;-67
2022/03/23 04:49:42;;;;;;;;;;;3.70;99.90;;;;;;2077758;28;19909;-67
2022/03/23 04:50:44;;;;;;;;;;;3.70;99.90;;;;;;2082185;28;19917;-67
2022/03/23 04:51:44;;;;;;;;;;;3.60;99.90;;;;;;2080302;28;19905;-67
2022/03/23 04:52:46;;;;;;;;;;;3.60;99.90;;;;;;2080798;28;19905;-67
2022/03/23 04:53:46;;;;;;;;;;;3.60;99.90;;;;;;2080895;28;19913;-67
2022/03/23 04:54:47;;;;;;;;;;;3.60;99.90;;;;;;2080638;28;19998;-67
2022/03/23 04:55:47;;;;;;;;;;;3.60;99.90;;;;;;2081458;28;19905;-67
2022/03/23 04:56:47;;;;;;;;;;;3.60;99.90;;;;;;2078698;28;19957;-67
2022/03/23 04:57:48;;;;;;;;;;;3.60;99.90;;;;;;2077785;28;19913;-67
2022/03/23 04:58:48;;;;;;;;;;;3.60;99.90;;;;;;2084556;28;19999;-67
2022/03/23 04:59:49;;;;;;;;;;;3.50;99.90;;;;;;2081961;28;19963;-67
2022/03/23 05:00:49;;;;;;;;;;;3.60;99.90;;;;;;2085840;28;19913;-67
2022/03/23 05:01:50;;;;;;;;;;;3.50;99.90;;;;;;2084029;28;20324;-67
2022/03/23 05:02:50;;;;;;;;;;;3.60;99.90;;;;;;2078598;28;19909;-67
2022/03/23 05:03:52;;;;;;;;;;;3.50;99.90;;;;;;2076791;28;19905;-67
2022/03/23 05:04:52;;;;;;;;;;;3.50;99.90;;;;;;2077811;28;20515;-67
2022/03/23 05:05:53;;;;;;;;;;;3.50;99.90;;;;;;2077245;28;20365;-67
2022/03/23 05:06:53;;;;;;;;;;;3.50;99.90;;;;;;2079832;28;19916;-67
2022/03/23 05:07:54;;;;;;;;;;;3.50;99.90;;;;;;2078931;28;19912;-67
2022/03/23 05:08:54;;;;;;;;;;;3.50;99.90;;;;;;2077495;28;20364;-67
2022/03/23 05:09:55;;;;;;;;;;;3.50;99.90;;;;;;2079623;28;19909;-67
2022/03/23 05:10:55;;;;;;;;;;;3.50;99.90;;;;;;2080396;28;19917;-67
2022/03/23 05:11:56;;;;;;;;;;;3.50;99.90;;;;;;2079301;28;19963;-67
2022/03/23 05:12:57;;;;;;;;;;;3.50;99.90;;;;;;2079650;28;20294;-67
2022/03/23 05:13:58;;;;;;;;;;;3.50;99.90;;;;;;2073628;28;19999;-67
2022/03/23 05:14:58;;;;;;;;;;;3.50;99.90;;;;;;2074541;28;20541;-67
2022/03/23 05:15:59;;;;;;;;;;;3.50;99.90;;;;;;2078880;28;19908;-67
2022/03/23 05:16:59;;;;;;;;;;;3.50;99.90;;;;;;2076970;28;19916;-67
2022/03/23 05:18:00;;;;;;;;;;;3.50;99.90;;;;;;2078629;28;19968;-67
2022/03/23 05:19:01;;;;;;;;;;;3.50;99.90;;;;;;2081763;28;19912;-67
2022/03/23 05:20:01;;;;;;;;;;;3.50;99.90;;;;;;2077807;28;19909;-67
2022/03/23 05:21:02;;;;;;;;;;;3.50;99.90;;;;;;2076949;28;19963;-67
2022/03/23 05:22:03;;;;;;;;;;;3.50;99.90;;;;;;2075440;28;19947;-67
2022/03/23 05:23:04;;;;;;;;;;;3.50;99.90;;;;;;2074157;28;20276;-67
2022/03/23 05:24:05;;;;;;;;;;;3.50;99.90;;;;;;2077715;28;19997;-67
2022/03/23 05:25:06;;;;;;;;;;;3.50;99.90;;;;;;2078448;28;19916;-67
2022/03/23 05:26:06;;;;;;;;;;;3.50;99.90;;;;;;2078292;28;19909;-67
2022/03/23 05:27:08;;;;;;;;;;;3.50;99.90;;;;;;2076309;28;19916;-68
2022/03/23 05:28:09;;;;;;;;;;;3.50;99.90;;;;;;2077144;28;20364;-68
2022/03/23 05:29:09;;;;;;;;;;;3.50;99.90;;;;;;2079749;28;20370;-67
2022/03/23 05:30:10;;;;;;;;;;;3.40;99.90;;;;;;2074541;28;19952;-67
2022/03/23 05:31:11;;;;;;;;;;;3.40;99.90;;;;;;2074286;28;19909;-67
2022/03/23 05:32:16;;;;;;;;;;;3.40;99.90;;;;;;2077634;28;19909;-67
2022/03/23 05:33:16;;;;;;;;;;;3.40;99.90;;;;;;2081467;28;19914;-67
2022/03/23 05:34:17;;;;;;;;;;;3.40;99.90;;;;;;2074834;28;19947;-67
2022/03/23 05:35:17;;;;;;;;;;;3.40;99.90;;;;;;2076688;28;19905;-67
2022/03/23 05:36:18;;;;;;;;;;;3.40;99.90;;;;;;2075376;28;19952;-67
2022/03/23 05:37:18;;;;;;;;;;;3.30;99.90;;;;;;2079654;28;20311;-67
2022/03/23 05:38:19;;;;;;;;;;;3.40;99.90;;;;;;2073537;28;20556;-67
2022/03/23 05:39:20;;;;;;;;;;;3.40;99.90;;;;;;2075910;28;20410;-67
2022/03/23 05:40:21;;;;;;;;;;;3.40;99.90;;;;;;2075667;28;19988;-67
2022/03/23 05:41:22;;;;;;;;;;;3.40;99.90;;;;;;2075951;28;19968;-67
2022/03/23 05:42:24;;;;;;;;;;;3.40;99.90;;;;;;2073738;28;19933;-68
2022/03/23 05:43:24;;;;;;;;;;;3.40;99.90;;;;;;2073727;28;19905;-68
2022/03/23 05:44:25;;;;;;;;;;;3.40;99.90;;;;;;2075764;28;19968;-68
2022/03/23 05:45:25;;;;;;;;;;;3.40;99.90;;;;;;2076774;28;19909;-68
2022/03/23 05:46:26;;;;;;;;;;;3.30;99.90;;;;;;2075550;28;20318;-68
2022/03/23 05:47:26;;;;;;;;;;;3.40;99.90;;;;;;2074932;28;20369;-68
2022/03/23 05:48:26;;;;;;;;;;;3.40;99.90;;;;;;2073349;28;20564;-68
2022/03/23 05:49:27;;;;;;;;;;;3.40;99.90;;;;;;2074007;28;20423;-68
2022/03/23 05:50:28;;;;;;;;;;;3.40;99.90;;;;;;2077371;28;19912;-68
2022/03/23 05:51:29;;;;;;;;;;;3.40;99.90;;;;;;2073196;28;19909;-68
2022/03/23 05:52:29;;;;;;;;;;;3.40;99.90;;;;;;2076246;28;19905;-68
2022/03/23 05:53:29;;;;;;;;;;;3.40;99.90;;;;;;2076244;28;19909;-68
2022/03/23 05:54:30;;;;;;;;;;;3.40;99.90;;;;;;2074383;28;19909;-68
2022/03/23 05:55:30;;;;;;;;;;;3.40;99.90;;;;;;2073641;28;19943;-68
2022/03/23 05:56:31;;;;;;;;;;;3.40;99.90;;;;;;2075864;28;20037;-68
2022/03/23 05:57:31;;;;;;;;;;;3.40;99.90;;;;;;2073369;28;19909;-68
2022/03/23 05:58:32;;;;;;;;;;;3.40;99.90;;;;;;2075470;28;19947;-68
2022/03/23 05:59:33;;;;;;;;;;;3.40;99.90;;;;;;2075308;28;20256;-68
2022/03/23 06:00:34;;;;;;;;;;;3.40;99.90;;;;;;2075780;28;19931;-68
2022/03/23 06:01:35;;;;;;;;;;;3.40;99.90;;;;;;2073342;28;19909;-69
2022/03/23 06:02:35;;;;;;;;;;;3.40;99.90;;;;;;2077094;28;19914;-68
2022/03/23 06:03:36;;;;;;;;;;;3.40;99.90;;;;;;2075579;28;19910;-68
2022/03/23 06:04:36;;;;;;;;;;;3.40;99.90;;;;;;2074150;28;20349;-68
2022/03/23 06:05:37;;;;;;;;;;;3.40;99.90;;;;;;2072627;28;19944;-68
2022/03/23 06:06:37;;;;;;;;;;;3.40;99.90;;;;;;2073721;28;19916;-68
2022/03/23 06:07:38;;;;;;;;;;;3.40;99.90;;;;;;2074172;28;19905;-68
2022/03/23 06:08:38;;;;;;;;;;;3.40;99.90;;;;;;2072709;28;19916;-68
2022/03/23 06:09:39;;;;;;;;;;;3.40;99.90;;;;;;2075405;28;19964;-68